<?xml version="1.0" encoding="UTF-8" standalone="no" ?>
<gpx xmlns="http://www.topografix.com/GPX/1/1" xmlns:xsi="http://www.w3.org/2001/XMLSchema-instance" xsi:schemaLocation="http://www.topografix.com/GPX/1/1 http://www.topografix.com/GPX/1/1/gpx.xsd" version="1.1" creator="VisuGPX - https://www.visugpx.com">
  <metadata>
    <name>De la Baronnie à Éterville en passant par le Mesnil et le Rocreuil</name>
  </metadata>
  <wpt lat="49.16358" lon="-0.41713">
    <ele>12</ele>
    <name><![CDATA[Parking du cimetière Saint-Pierre rue du Viquet]]></name>
  </wpt>
  <wpt lat="49.16235" lon="-0.41948">
    <ele>15</ele>
    <name><![CDATA[Pont de l'ancienne voie ferrée Caen-Vire]]></name>
  </wpt>
  <wpt lat="49.16143" lon="-0.40946">
    <ele>13</ele>
    <name><![CDATA[La D 8 au Mesnil]]></name>
  </wpt>
  <wpt lat="49.15913" lon="-0.42173">
    <ele>15</ele>
    <name><![CDATA[Chemin du Moulin d’Ardennes. A/R]]></name>
  </wpt>
  <wpt lat="49.15667" lon="-0.4246">
    <ele>31</ele>
    <name><![CDATA[Sortie de la passerelle qui franchit le périph.]]></name>
  </wpt>
  <wpt lat="49.15722" lon="-0.43161">
    <ele>24</ele>
    <name><![CDATA[Rue du Bout au Mesnil au Rocreuil]]></name>
  </wpt>
  <wpt lat="49.16032" lon="-0.4222">
    <ele>13</ele>
    <name><![CDATA[Passerelle sur l']]></name>
  </wpt>
  <wpt lat="49.16358" lon="-0.41713">
    <ele>12</ele>
    <name><![CDATA[Parking du cimetière Saint-Pierre rue du Viquet]]></name>
  </wpt>
  <trk>
    <name><![CDATA[De la Baronnie à Éterville en passant par le Mesnil et le Rocreuil]]></name>
    <trkseg>
      <trkpt lat="49.16358" lon="-0.41713">
        <ele>12</ele>
        <time>2019-02-25T10:12:50+01:00</time>
      </trkpt>
      <trkpt lat="49.16342" lon="-0.41728">
        <ele>12</ele>
        <time>2019-02-25T10:13:32+01:00</time>
      </trkpt>
      <trkpt lat="49.16336" lon="-0.41755">
        <ele>12</ele>
        <time>2019-02-25T10:13:43+01:00</time>
      </trkpt>
      <trkpt lat="49.16332" lon="-0.41781">
        <ele>13</ele>
        <time>2019-02-25T10:13:56+01:00</time>
      </trkpt>
      <trkpt lat="49.16313" lon="-0.41781">
        <ele>13</ele>
        <time>2019-02-25T10:14:16+01:00</time>
      </trkpt>
      <trkpt lat="49.16298" lon="-0.41779">
        <ele>13</ele>
        <time>2021-04-30T16:09:05+02:00</time>
      </trkpt>
      <trkpt lat="49.16288" lon="-0.41798">
        <ele>13</ele>
        <time>2019-02-25T10:14:29+01:00</time>
      </trkpt>
      <trkpt lat="49.16275" lon="-0.4182">
        <ele>14</ele>
        <time>2019-02-25T10:14:39+01:00</time>
      </trkpt>
      <trkpt lat="49.16263" lon="-0.41842">
        <ele>14</ele>
        <time>2019-02-25T10:14:57+01:00</time>
      </trkpt>
      <trkpt lat="49.16255" lon="-0.41861">
        <ele>14</ele>
        <time>2019-02-25T10:15:09+01:00</time>
      </trkpt>
      <trkpt lat="49.16253" lon="-0.41886">
        <ele>15</ele>
        <time>2019-02-25T10:15:23+01:00</time>
      </trkpt>
      <trkpt lat="49.16255" lon="-0.41919">
        <ele>15</ele>
        <time>2019-02-25T10:15:44+01:00</time>
      </trkpt>
      <trkpt lat="49.16255" lon="-0.41948">
        <ele>16</ele>
        <time>2019-02-25T10:15:57+01:00</time>
      </trkpt>
      <trkpt lat="49.16235" lon="-0.41948">
        <ele>15</ele>
        <time>2019-02-25T10:16:41+01:00</time>
      </trkpt>
      <trkpt lat="49.1623" lon="-0.41926">
        <ele>15</ele>
        <time>2019-02-25T10:16:43+01:00</time>
      </trkpt>
      <trkpt lat="49.16216" lon="-0.41903">
        <ele>14</ele>
        <time>2021-04-30T16:09:55+02:00</time>
      </trkpt>
      <trkpt lat="49.16209" lon="-0.41875">
        <ele>14</ele>
        <time>2019-02-25T10:18:04+01:00</time>
      </trkpt>
      <trkpt lat="49.16204" lon="-0.41847">
        <ele>14</ele>
        <time>2019-02-25T10:18:24+01:00</time>
      </trkpt>
      <trkpt lat="49.16197" lon="-0.41822">
        <ele>14</ele>
        <time>2019-02-25T10:18:35+01:00</time>
      </trkpt>
      <trkpt lat="49.16193" lon="-0.41792">
        <ele>14</ele>
        <time>2019-02-25T10:18:47+01:00</time>
      </trkpt>
      <trkpt lat="49.16189" lon="-0.41764">
        <ele>13</ele>
        <time>2019-02-25T10:18:58+01:00</time>
      </trkpt>
      <trkpt lat="49.16183" lon="-0.41733">
        <ele>13</ele>
        <time>2019-02-25T10:19:10+01:00</time>
      </trkpt>
      <trkpt lat="49.16181" lon="-0.41706">
        <ele>13</ele>
        <time>2019-02-25T10:19:28+01:00</time>
      </trkpt>
      <trkpt lat="49.16176" lon="-0.41674">
        <ele>13</ele>
        <time>2019-02-25T10:19:38+01:00</time>
      </trkpt>
      <trkpt lat="49.16173" lon="-0.41647">
        <ele>14</ele>
        <time>2019-02-25T10:19:53+01:00</time>
      </trkpt>
      <trkpt lat="49.16169" lon="-0.41619">
        <ele>14</ele>
        <time>2019-02-25T10:20:07+01:00</time>
      </trkpt>
      <trkpt lat="49.16166" lon="-0.41589">
        <ele>14</ele>
        <time>2019-02-25T10:20:20+01:00</time>
      </trkpt>
      <trkpt lat="49.16163" lon="-0.41557">
        <ele>14</ele>
        <time>2019-02-25T10:20:33+01:00</time>
      </trkpt>
      <trkpt lat="49.16161" lon="-0.41529">
        <ele>14</ele>
        <time>2019-02-25T10:20:44+01:00</time>
      </trkpt>
      <trkpt lat="49.1616" lon="-0.41501">
        <ele>13</ele>
        <time>2019-02-25T10:20:54+01:00</time>
      </trkpt>
      <trkpt lat="49.16158" lon="-0.4147">
        <ele>13</ele>
        <time>2019-02-25T10:21:07+01:00</time>
      </trkpt>
      <trkpt lat="49.16157" lon="-0.41444">
        <ele>13</ele>
        <time>2019-02-25T10:21:18+01:00</time>
      </trkpt>
      <trkpt lat="49.16157" lon="-0.41415">
        <ele>13</ele>
        <time>2019-02-25T10:21:32+01:00</time>
      </trkpt>
      <trkpt lat="49.16156" lon="-0.41389">
        <ele>12</ele>
        <time>2019-02-25T10:21:47+01:00</time>
      </trkpt>
      <trkpt lat="49.16156" lon="-0.41359">
        <ele>12</ele>
        <time>2019-02-25T10:21:55+01:00</time>
      </trkpt>
      <trkpt lat="49.16155" lon="-0.41325">
        <ele>11</ele>
        <time>2019-02-25T10:22:10+01:00</time>
      </trkpt>
      <trkpt lat="49.16154" lon="-0.41295">
        <ele>11</ele>
        <time>2019-02-25T10:22:21+01:00</time>
      </trkpt>
      <trkpt lat="49.16154" lon="-0.41275">
        <ele>11</ele>
        <time>2019-02-25T10:22:27+01:00</time>
      </trkpt>
      <trkpt lat="49.16153" lon="-0.41246">
        <ele>11</ele>
        <time>2019-02-25T10:22:46+01:00</time>
      </trkpt>
      <trkpt lat="49.16152" lon="-0.41217">
        <ele>12</ele>
        <time>2019-02-25T10:22:57+01:00</time>
      </trkpt>
      <trkpt lat="49.16151" lon="-0.41189">
        <ele>12</ele>
        <time>2019-02-25T10:23:11+01:00</time>
      </trkpt>
      <trkpt lat="49.16151" lon="-0.41161">
        <ele>12</ele>
        <time>2019-02-25T10:23:26+01:00</time>
      </trkpt>
      <trkpt lat="49.16148" lon="-0.41132">
        <ele>11</ele>
        <time>2019-02-25T10:23:37+01:00</time>
      </trkpt>
      <trkpt lat="49.16149" lon="-0.41103">
        <ele>10</ele>
        <time>2019-02-25T10:23:47+01:00</time>
      </trkpt>
      <trkpt lat="49.16149" lon="-0.41073">
        <ele>10</ele>
        <time>2019-02-25T10:23:58+01:00</time>
      </trkpt>
      <trkpt lat="49.16147" lon="-0.4104">
        <ele>10</ele>
        <time>2019-02-25T10:24:09+01:00</time>
      </trkpt>
      <trkpt lat="49.16146" lon="-0.41011">
        <ele>10</ele>
        <time>2019-02-25T10:24:25+01:00</time>
      </trkpt>
      <trkpt lat="49.16145" lon="-0.40981">
        <ele>11</ele>
        <time>2019-02-25T10:24:38+01:00</time>
      </trkpt>
      <trkpt lat="49.16143" lon="-0.40953">
        <ele>13</ele>
        <time>2019-02-25T10:24:50+01:00</time>
      </trkpt>
      <trkpt lat="49.16143" lon="-0.40946">
        <ele>13</ele>
        <time>2019-02-25T10:24:55+01:00</time>
      </trkpt>
      <trkpt lat="49.16127" lon="-0.40959">
        <ele>13</ele>
        <time>2019-02-25T10:26:17+01:00</time>
      </trkpt>
      <trkpt lat="49.16108" lon="-0.40976">
        <ele>12</ele>
        <time>2019-02-25T10:26:26+01:00</time>
      </trkpt>
      <trkpt lat="49.1609" lon="-0.40992">
        <ele>12</ele>
        <time>2019-02-25T10:26:42+01:00</time>
      </trkpt>
      <trkpt lat="49.16073" lon="-0.41004">
        <ele>12</ele>
        <time>2019-02-25T10:26:56+01:00</time>
      </trkpt>
      <trkpt lat="49.16057" lon="-0.41018">
        <ele>13</ele>
        <time>2019-02-25T10:27:07+01:00</time>
      </trkpt>
      <trkpt lat="49.16047" lon="-0.41028">
        <ele>13</ele>
        <time>2019-02-25T10:27:15+01:00</time>
      </trkpt>
      <trkpt lat="49.16028" lon="-0.41043">
        <ele>14</ele>
        <time>2019-02-25T10:27:29+01:00</time>
      </trkpt>
      <trkpt lat="49.16013" lon="-0.41057">
        <ele>14</ele>
        <time>2019-02-25T10:27:41+01:00</time>
      </trkpt>
      <trkpt lat="49.15994" lon="-0.41073">
        <ele>15</ele>
        <time>2019-02-25T10:27:56+01:00</time>
      </trkpt>
      <trkpt lat="49.15977" lon="-0.41087">
        <ele>16</ele>
        <time>2019-02-25T10:28:07+01:00</time>
      </trkpt>
      <trkpt lat="49.1596" lon="-0.41102">
        <ele>16</ele>
        <time>2019-02-25T10:28:24+01:00</time>
      </trkpt>
      <trkpt lat="49.15947" lon="-0.41114">
        <ele>17</ele>
        <time>2019-02-25T10:28:36+01:00</time>
      </trkpt>
      <trkpt lat="49.15928" lon="-0.41129">
        <ele>17</ele>
        <time>2021-04-30T16:13:50+02:00</time>
      </trkpt>
      <trkpt lat="49.15921" lon="-0.41158">
        <ele>18</ele>
        <time>2019-02-25T10:29:04+01:00</time>
      </trkpt>
      <trkpt lat="49.15921" lon="-0.41184">
        <ele>18</ele>
        <time>2019-02-25T10:29:19+01:00</time>
      </trkpt>
      <trkpt lat="49.15922" lon="-0.41208">
        <ele>17</ele>
        <time>2019-02-25T10:29:30+01:00</time>
      </trkpt>
      <trkpt lat="49.15924" lon="-0.41237">
        <ele>17</ele>
        <time>2019-02-25T10:29:41+01:00</time>
      </trkpt>
      <trkpt lat="49.15926" lon="-0.4126">
        <ele>17</ele>
        <time>2019-02-25T10:29:53+01:00</time>
      </trkpt>
      <trkpt lat="49.15929" lon="-0.41285">
        <ele>18</ele>
        <time>2019-02-25T10:30:07+01:00</time>
      </trkpt>
      <trkpt lat="49.15931" lon="-0.4131">
        <ele>18</ele>
        <time>2019-02-25T10:30:15+01:00</time>
      </trkpt>
      <trkpt lat="49.15934" lon="-0.41338">
        <ele>19</ele>
        <time>2019-02-25T10:30:32+01:00</time>
      </trkpt>
      <trkpt lat="49.15937" lon="-0.41363">
        <ele>20</ele>
        <time>2019-02-25T10:30:43+01:00</time>
      </trkpt>
      <trkpt lat="49.15941" lon="-0.41394">
        <ele>21</ele>
        <time>2019-02-25T10:30:58+01:00</time>
      </trkpt>
      <trkpt lat="49.15944" lon="-0.41423">
        <ele>22</ele>
        <time>2019-02-25T10:31:09+01:00</time>
      </trkpt>
      <trkpt lat="49.15949" lon="-0.41456">
        <ele>22</ele>
        <time>2019-02-25T10:31:25+01:00</time>
      </trkpt>
      <trkpt lat="49.15953" lon="-0.41488">
        <ele>21</ele>
        <time>2019-02-25T10:31:40+01:00</time>
      </trkpt>
      <trkpt lat="49.15957" lon="-0.4152">
        <ele>21</ele>
        <time>2019-02-25T10:31:55+01:00</time>
      </trkpt>
      <trkpt lat="49.15961" lon="-0.41548">
        <ele>21</ele>
        <time>2019-02-25T10:32:04+01:00</time>
      </trkpt>
      <trkpt lat="49.15966" lon="-0.4158">
        <ele>20</ele>
        <time>2019-02-25T10:32:21+01:00</time>
      </trkpt>
      <trkpt lat="49.15968" lon="-0.41603">
        <ele>20</ele>
        <time>2019-02-25T10:32:35+01:00</time>
      </trkpt>
      <trkpt lat="49.15972" lon="-0.41631">
        <ele>19</ele>
        <time>2019-02-25T10:32:45+01:00</time>
      </trkpt>
      <trkpt lat="49.15975" lon="-0.41659">
        <ele>19</ele>
        <time>2019-02-25T10:32:57+01:00</time>
      </trkpt>
      <trkpt lat="49.15978" lon="-0.41687">
        <ele>19</ele>
        <time>2019-02-25T10:33:12+01:00</time>
      </trkpt>
      <trkpt lat="49.15983" lon="-0.41721">
        <ele>18</ele>
        <time>2019-02-25T10:33:28+01:00</time>
      </trkpt>
      <trkpt lat="49.15987" lon="-0.41749">
        <ele>18</ele>
        <time>2019-02-25T10:33:40+01:00</time>
      </trkpt>
      <trkpt lat="49.15991" lon="-0.41777">
        <ele>18</ele>
        <time>2019-02-25T10:33:50+01:00</time>
      </trkpt>
      <trkpt lat="49.15995" lon="-0.41807">
        <ele>17</ele>
        <time>2019-02-25T10:34:03+01:00</time>
      </trkpt>
      <trkpt lat="49.15999" lon="-0.41826">
        <ele>17</ele>
        <time>2019-02-25T10:34:11+01:00</time>
      </trkpt>
      <trkpt lat="49.16001" lon="-0.41845">
        <ele>17</ele>
        <time>2019-02-25T10:34:16+01:00</time>
      </trkpt>
      <trkpt lat="49.16003" lon="-0.41871">
        <ele>16</ele>
        <time>2019-02-25T10:34:31+01:00</time>
      </trkpt>
      <trkpt lat="49.16" lon="-0.419">
        <ele>16</ele>
        <time>2019-02-25T10:34:46+01:00</time>
      </trkpt>
      <trkpt lat="49.15996" lon="-0.41914">
        <ele>16</ele>
        <time>2019-02-25T10:34:54+01:00</time>
      </trkpt>
      <trkpt lat="49.15987" lon="-0.41945">
        <ele>16</ele>
        <time>2019-02-25T10:35:04+01:00</time>
      </trkpt>
      <trkpt lat="49.1598" lon="-0.41971">
        <ele>16</ele>
        <time>2019-02-25T10:35:19+01:00</time>
      </trkpt>
      <trkpt lat="49.15972" lon="-0.41997">
        <ele>15</ele>
        <time>2019-02-25T10:35:31+01:00</time>
      </trkpt>
      <trkpt lat="49.15964" lon="-0.42025">
        <ele>15</ele>
        <time>2019-02-25T10:35:45+01:00</time>
      </trkpt>
      <trkpt lat="49.15959" lon="-0.42041">
        <ele>15</ele>
        <time>2019-02-25T10:35:55+01:00</time>
      </trkpt>
      <trkpt lat="49.15953" lon="-0.42066">
        <ele>15</ele>
        <time>2019-02-25T10:36:01+01:00</time>
      </trkpt>
      <trkpt lat="49.15945" lon="-0.4209">
        <ele>15</ele>
        <time>2019-02-25T10:36:16+01:00</time>
      </trkpt>
      <trkpt lat="49.15938" lon="-0.42114">
        <ele>15</ele>
        <time>2019-02-25T10:36:30+01:00</time>
      </trkpt>
      <trkpt lat="49.1593" lon="-0.42143">
        <ele>15</ele>
        <time>2019-02-25T10:36:39+01:00</time>
      </trkpt>
      <trkpt lat="49.15924" lon="-0.42165">
        <ele>15</ele>
        <time>2019-02-25T10:36:46+01:00</time>
      </trkpt>
      <trkpt lat="49.15913" lon="-0.42173">
        <ele>15</ele>
        <time>2019-02-25T10:36:55+01:00</time>
      </trkpt>
      <trkpt lat="49.15899" lon="-0.42189">
        <ele>16</ele>
        <time>2019-02-25T10:37:11+01:00</time>
      </trkpt>
      <trkpt lat="49.15884" lon="-0.42203">
        <ele>17</ele>
        <time>2019-02-25T10:37:23+01:00</time>
      </trkpt>
      <trkpt lat="49.15866" lon="-0.42219">
        <ele>18</ele>
        <time>2019-02-25T10:37:38+01:00</time>
      </trkpt>
      <trkpt lat="49.15848" lon="-0.42234">
        <ele>19</ele>
        <time>2019-02-25T10:37:54+01:00</time>
      </trkpt>
      <trkpt lat="49.15832" lon="-0.4225">
        <ele>19</ele>
        <time>2019-02-25T10:38:07+01:00</time>
      </trkpt>
      <trkpt lat="49.15815" lon="-0.42266">
        <ele>21</ele>
        <time>2019-02-25T10:38:20+01:00</time>
      </trkpt>
      <trkpt lat="49.15799" lon="-0.42282">
        <ele>22</ele>
        <time>2019-02-25T10:38:33+01:00</time>
      </trkpt>
      <trkpt lat="49.15782" lon="-0.42297">
        <ele>23</ele>
        <time>2019-02-25T10:38:48+01:00</time>
      </trkpt>
      <trkpt lat="49.15765" lon="-0.42316">
        <ele>25</ele>
        <time>2019-02-25T10:39:04+01:00</time>
      </trkpt>
      <trkpt lat="49.15746" lon="-0.42332">
        <ele>26</ele>
        <time>2019-02-25T10:39:20+01:00</time>
      </trkpt>
      <trkpt lat="49.15731" lon="-0.42349">
        <ele>26</ele>
        <time>2019-02-25T10:39:34+01:00</time>
      </trkpt>
      <trkpt lat="49.15717" lon="-0.42374">
        <ele>26</ele>
        <time>2019-02-25T10:39:49+01:00</time>
      </trkpt>
      <trkpt lat="49.15707" lon="-0.42402">
        <ele>27</ele>
        <time>2019-02-25T10:39:56+01:00</time>
      </trkpt>
      <trkpt lat="49.15695" lon="-0.42424">
        <ele>27</ele>
        <time>2019-02-25T10:40:10+01:00</time>
      </trkpt>
      <trkpt lat="49.15683" lon="-0.42447">
        <ele>29</ele>
        <time>2019-02-25T10:40:29+01:00</time>
      </trkpt>
      <trkpt lat="49.15667" lon="-0.4246">
        <ele>31</ele>
        <time>2019-02-25T10:40:35+01:00</time>
      </trkpt>
      <trkpt lat="49.15652" lon="-0.4244">
        <ele>31</ele>
        <time>2019-02-25T10:42:36+01:00</time>
      </trkpt>
      <trkpt lat="49.15637" lon="-0.42422">
        <ele>31</ele>
        <time>2019-02-25T10:42:51+01:00</time>
      </trkpt>
      <trkpt lat="49.15623" lon="-0.42401">
        <ele>32</ele>
        <time>2019-02-25T10:43:06+01:00</time>
      </trkpt>
      <trkpt lat="49.15606" lon="-0.4238">
        <ele>32</ele>
        <time>2019-02-25T10:43:19+01:00</time>
      </trkpt>
      <trkpt lat="49.15591" lon="-0.42358">
        <ele>32</ele>
        <time>2019-02-25T10:43:32+01:00</time>
      </trkpt>
      <trkpt lat="49.15575" lon="-0.42335">
        <ele>31</ele>
        <time>2019-02-25T10:43:45+01:00</time>
      </trkpt>
      <trkpt lat="49.1556" lon="-0.42316">
        <ele>31</ele>
        <time>2019-02-25T10:44:01+01:00</time>
      </trkpt>
      <trkpt lat="49.15546" lon="-0.42295">
        <ele>31</ele>
        <time>2019-02-25T10:44:16+01:00</time>
      </trkpt>
      <trkpt lat="49.15532" lon="-0.42275">
        <ele>31</ele>
        <time>2019-02-25T10:44:29+01:00</time>
      </trkpt>
      <trkpt lat="49.15516" lon="-0.42256">
        <ele>31</ele>
        <time>2019-02-25T10:44:43+01:00</time>
      </trkpt>
      <trkpt lat="49.15503" lon="-0.42235">
        <ele>31</ele>
        <time>2019-02-25T10:44:58+01:00</time>
      </trkpt>
      <trkpt lat="49.15488" lon="-0.42216">
        <ele>32</ele>
        <time>2019-02-25T10:45:12+01:00</time>
      </trkpt>
      <trkpt lat="49.15474" lon="-0.42197">
        <ele>32</ele>
        <time>2019-02-25T10:45:25+01:00</time>
      </trkpt>
      <trkpt lat="49.15459" lon="-0.42174">
        <ele>33</ele>
        <time>2019-02-25T10:45:38+01:00</time>
      </trkpt>
      <trkpt lat="49.15443" lon="-0.42153">
        <ele>34</ele>
        <time>2019-02-25T10:45:49+01:00</time>
      </trkpt>
      <trkpt lat="49.1543" lon="-0.42132">
        <ele>34</ele>
        <time>2019-02-25T10:46:06+01:00</time>
      </trkpt>
      <trkpt lat="49.15416" lon="-0.42113">
        <ele>34</ele>
        <time>2019-02-25T10:46:18+01:00</time>
      </trkpt>
      <trkpt lat="49.15403" lon="-0.42094">
        <ele>34</ele>
        <time>2019-02-25T10:46:31+01:00</time>
      </trkpt>
      <trkpt lat="49.15389" lon="-0.42073">
        <ele>33</ele>
        <time>2019-02-25T10:46:44+01:00</time>
      </trkpt>
      <trkpt lat="49.15375" lon="-0.42055">
        <ele>33</ele>
        <time>2019-02-25T10:46:58+01:00</time>
      </trkpt>
      <trkpt lat="49.1536" lon="-0.42057">
        <ele>32</ele>
        <time>2019-02-25T10:47:11+01:00</time>
      </trkpt>
      <trkpt lat="49.15346" lon="-0.42076">
        <ele>31</ele>
        <time>2019-02-25T10:47:25+01:00</time>
      </trkpt>
      <trkpt lat="49.15332" lon="-0.42096">
        <ele>31</ele>
        <time>2019-02-25T10:47:37+01:00</time>
      </trkpt>
      <trkpt lat="49.15324" lon="-0.42107">
        <ele>31</ele>
        <time>2019-02-25T10:47:42+01:00</time>
      </trkpt>
      <trkpt lat="49.15309" lon="-0.42128">
        <ele>32</ele>
        <time>2019-02-25T10:47:56+01:00</time>
      </trkpt>
      <trkpt lat="49.15295" lon="-0.42151">
        <ele>32</ele>
        <time>2019-02-25T10:48:09+01:00</time>
      </trkpt>
      <trkpt lat="49.1528" lon="-0.42172">
        <ele>33</ele>
        <time>2019-02-25T10:48:22+01:00</time>
      </trkpt>
      <trkpt lat="49.15266" lon="-0.4219">
        <ele>34</ele>
        <time>2019-02-25T10:48:36+01:00</time>
      </trkpt>
      <trkpt lat="49.15259" lon="-0.42202">
        <ele>34</ele>
        <time>2019-02-25T10:48:42+01:00</time>
      </trkpt>
      <trkpt lat="49.15241" lon="-0.42224">
        <ele>35</ele>
        <time>2019-02-25T10:48:56+01:00</time>
      </trkpt>
      <trkpt lat="49.15228" lon="-0.42242">
        <ele>36</ele>
        <time>2019-02-25T10:49:11+01:00</time>
      </trkpt>
      <trkpt lat="49.15219" lon="-0.42258">
        <ele>36</ele>
        <time>2019-02-25T10:49:20+01:00</time>
      </trkpt>
      <trkpt lat="49.15203" lon="-0.4228">
        <ele>36</ele>
        <time>2019-02-25T10:49:34+01:00</time>
      </trkpt>
      <trkpt lat="49.15191" lon="-0.42299">
        <ele>36</ele>
        <time>2019-02-25T10:49:48+01:00</time>
      </trkpt>
      <trkpt lat="49.15177" lon="-0.42323">
        <ele>36</ele>
        <time>2019-02-25T10:50:01+01:00</time>
      </trkpt>
      <trkpt lat="49.15161" lon="-0.42346">
        <ele>36</ele>
        <time>2019-02-25T10:50:16+01:00</time>
      </trkpt>
      <trkpt lat="49.15147" lon="-0.42365">
        <ele>37</ele>
        <time>2019-02-25T10:50:28+01:00</time>
      </trkpt>
      <trkpt lat="49.15131" lon="-0.42387">
        <ele>38</ele>
        <time>2019-02-25T10:50:41+01:00</time>
      </trkpt>
      <trkpt lat="49.15115" lon="-0.42406">
        <ele>39</ele>
        <time>2019-02-25T10:50:54+01:00</time>
      </trkpt>
      <trkpt lat="49.151" lon="-0.4242">
        <ele>39</ele>
        <time>2019-02-25T10:51:09+01:00</time>
      </trkpt>
      <trkpt lat="49.15082" lon="-0.4244">
        <ele>39</ele>
        <time>2019-02-25T10:51:24+01:00</time>
      </trkpt>
      <trkpt lat="49.15072" lon="-0.42449">
        <ele>39</ele>
        <time>2019-02-25T10:51:30+01:00</time>
      </trkpt>
      <trkpt lat="49.15053" lon="-0.42461">
        <ele>39</ele>
        <time>2019-02-25T10:51:43+01:00</time>
      </trkpt>
      <trkpt lat="49.15034" lon="-0.4247">
        <ele>40</ele>
        <time>2019-02-25T10:51:58+01:00</time>
      </trkpt>
      <trkpt lat="49.15014" lon="-0.42479">
        <ele>40</ele>
        <time>2019-02-25T10:52:14+01:00</time>
      </trkpt>
      <trkpt lat="49.15002" lon="-0.42484">
        <ele>40</ele>
        <time>2019-02-25T10:52:23+01:00</time>
      </trkpt>
      <trkpt lat="49.14982" lon="-0.42494">
        <ele>40</ele>
        <time>2019-02-25T10:52:37+01:00</time>
      </trkpt>
      <trkpt lat="49.14961" lon="-0.42505">
        <ele>41</ele>
        <time>2019-02-25T10:52:52+01:00</time>
      </trkpt>
      <trkpt lat="49.1494" lon="-0.42518">
        <ele>41</ele>
        <time>2019-02-25T10:53:08+01:00</time>
      </trkpt>
      <trkpt lat="49.14922" lon="-0.42531">
        <ele>41</ele>
        <time>2019-02-25T10:53:23+01:00</time>
      </trkpt>
      <trkpt lat="49.14904" lon="-0.42547">
        <ele>42</ele>
        <time>2019-02-25T10:53:35+01:00</time>
      </trkpt>
      <trkpt lat="49.14888" lon="-0.42559">
        <ele>43</ele>
        <time>2019-02-25T10:53:48+01:00</time>
      </trkpt>
      <trkpt lat="49.14872" lon="-0.42574">
        <ele>43</ele>
        <time>2019-02-25T10:54:02+01:00</time>
      </trkpt>
      <trkpt lat="49.14879" lon="-0.42589">
        <ele>43</ele>
        <time>2019-02-25T10:55:27+01:00</time>
      </trkpt>
      <trkpt lat="49.14886" lon="-0.42603">
        <ele>43</ele>
        <time>2019-02-25T10:55:38+01:00</time>
      </trkpt>
      <trkpt lat="49.14899" lon="-0.4263">
        <ele>44</ele>
        <time>2019-02-25T10:55:53+01:00</time>
      </trkpt>
      <trkpt lat="49.14912" lon="-0.42658">
        <ele>44</ele>
        <time>2019-02-25T10:56:07+01:00</time>
      </trkpt>
      <trkpt lat="49.14923" lon="-0.42682">
        <ele>44</ele>
        <time>2019-02-25T10:56:17+01:00</time>
      </trkpt>
      <trkpt lat="49.14937" lon="-0.42707">
        <ele>44</ele>
        <time>2019-02-25T10:56:29+01:00</time>
      </trkpt>
      <trkpt lat="49.14948" lon="-0.42732">
        <ele>44</ele>
        <time>2019-02-25T10:56:43+01:00</time>
      </trkpt>
      <trkpt lat="49.1496" lon="-0.42757">
        <ele>44</ele>
        <time>2019-02-25T10:56:57+01:00</time>
      </trkpt>
      <trkpt lat="49.14966" lon="-0.42771">
        <ele>44</ele>
        <time>2019-02-25T10:57:04+01:00</time>
      </trkpt>
      <trkpt lat="49.14977" lon="-0.42794">
        <ele>44</ele>
        <time>2019-02-25T10:57:17+01:00</time>
      </trkpt>
      <trkpt lat="49.14988" lon="-0.42817">
        <ele>43</ele>
        <time>2019-02-25T10:57:30+01:00</time>
      </trkpt>
      <trkpt lat="49.14994" lon="-0.42833">
        <ele>42</ele>
        <time>2019-02-25T10:57:35+01:00</time>
      </trkpt>
      <trkpt lat="49.15005" lon="-0.42857">
        <ele>42</ele>
        <time>2019-02-25T10:57:49+01:00</time>
      </trkpt>
      <trkpt lat="49.15015" lon="-0.42882">
        <ele>43</ele>
        <time>2019-02-25T10:58:00+01:00</time>
      </trkpt>
      <trkpt lat="49.15027" lon="-0.4291">
        <ele>43</ele>
        <time>2019-02-25T10:58:11+01:00</time>
      </trkpt>
      <trkpt lat="49.15038" lon="-0.42931">
        <ele>43</ele>
        <time>2019-02-25T10:58:24+01:00</time>
      </trkpt>
      <trkpt lat="49.15049" lon="-0.42958">
        <ele>43</ele>
        <time>2019-02-25T10:58:37+01:00</time>
      </trkpt>
      <trkpt lat="49.15063" lon="-0.42981">
        <ele>43</ele>
        <time>2019-02-25T10:58:49+01:00</time>
      </trkpt>
      <trkpt lat="49.15074" lon="-0.43007">
        <ele>43</ele>
        <time>2019-02-25T10:59:04+01:00</time>
      </trkpt>
      <trkpt lat="49.15088" lon="-0.43029">
        <ele>43</ele>
        <time>2019-02-25T10:59:16+01:00</time>
      </trkpt>
      <trkpt lat="49.15101" lon="-0.43053">
        <ele>43</ele>
        <time>2019-02-25T10:59:30+01:00</time>
      </trkpt>
      <trkpt lat="49.15114" lon="-0.43076">
        <ele>44</ele>
        <time>2019-02-25T10:59:40+01:00</time>
      </trkpt>
      <trkpt lat="49.15128" lon="-0.43099">
        <ele>43</ele>
        <time>2019-02-25T10:59:55+01:00</time>
      </trkpt>
      <trkpt lat="49.15138" lon="-0.43107">
        <ele>43</ele>
        <time>2019-02-25T11:00:05+01:00</time>
      </trkpt>
      <trkpt lat="49.15157" lon="-0.43121">
        <ele>43</ele>
        <time>2019-02-25T11:00:23+01:00</time>
      </trkpt>
      <trkpt lat="49.15176" lon="-0.4313">
        <ele>42</ele>
        <time>2019-02-25T11:00:38+01:00</time>
      </trkpt>
      <trkpt lat="49.15194" lon="-0.4314">
        <ele>42</ele>
        <time>2019-02-25T11:00:53+01:00</time>
      </trkpt>
      <trkpt lat="49.15211" lon="-0.43147">
        <ele>42</ele>
        <time>2019-02-25T11:01:06+01:00</time>
      </trkpt>
      <trkpt lat="49.15221" lon="-0.43154">
        <ele>42</ele>
        <time>2019-02-25T11:01:17+01:00</time>
      </trkpt>
      <trkpt lat="49.15242" lon="-0.43164">
        <ele>42</ele>
        <time>2019-02-25T11:01:31+01:00</time>
      </trkpt>
      <trkpt lat="49.15259" lon="-0.43174">
        <ele>42</ele>
        <time>2019-02-25T11:01:42+01:00</time>
      </trkpt>
      <trkpt lat="49.15278" lon="-0.43186">
        <ele>41</ele>
        <time>2019-02-25T11:01:57+01:00</time>
      </trkpt>
      <trkpt lat="49.15297" lon="-0.43196">
        <ele>40</ele>
        <time>2019-02-25T11:02:10+01:00</time>
      </trkpt>
      <trkpt lat="49.15314" lon="-0.43209">
        <ele>39</ele>
        <time>2019-02-25T11:02:27+01:00</time>
      </trkpt>
      <trkpt lat="49.15332" lon="-0.43223">
        <ele>39</ele>
        <time>2019-02-25T11:02:40+01:00</time>
      </trkpt>
      <trkpt lat="49.15349" lon="-0.43239">
        <ele>39</ele>
        <time>2019-02-25T11:02:50+01:00</time>
      </trkpt>
      <trkpt lat="49.15367" lon="-0.43252">
        <ele>39</ele>
        <time>2019-02-25T11:03:06+01:00</time>
      </trkpt>
      <trkpt lat="49.15384" lon="-0.43266">
        <ele>39</ele>
        <time>2019-02-25T11:03:18+01:00</time>
      </trkpt>
      <trkpt lat="49.15401" lon="-0.43279">
        <ele>39</ele>
        <time>2019-02-25T11:03:32+01:00</time>
      </trkpt>
      <trkpt lat="49.15421" lon="-0.43291">
        <ele>38</ele>
        <time>2019-02-25T11:03:47+01:00</time>
      </trkpt>
      <trkpt lat="49.15437" lon="-0.43302">
        <ele>38</ele>
        <time>2019-02-25T11:04:01+01:00</time>
      </trkpt>
      <trkpt lat="49.15447" lon="-0.4331">
        <ele>37</ele>
        <time>2019-02-25T11:04:09+01:00</time>
      </trkpt>
      <trkpt lat="49.15467" lon="-0.43325">
        <ele>37</ele>
        <time>2019-02-25T11:04:21+01:00</time>
      </trkpt>
      <trkpt lat="49.15485" lon="-0.43337">
        <ele>36</ele>
        <time>2019-02-25T11:04:35+01:00</time>
      </trkpt>
      <trkpt lat="49.15504" lon="-0.43349">
        <ele>35</ele>
        <time>2019-02-25T11:04:51+01:00</time>
      </trkpt>
      <trkpt lat="49.15526" lon="-0.43345">
        <ele>35</ele>
        <time>2019-02-25T11:07:18+01:00</time>
      </trkpt>
      <trkpt lat="49.15532" lon="-0.43315">
        <ele>35</ele>
        <time>2019-02-25T11:07:34+01:00</time>
      </trkpt>
      <trkpt lat="49.15537" lon="-0.43297">
        <ele>34</ele>
        <time>2019-02-25T11:07:40+01:00</time>
      </trkpt>
      <trkpt lat="49.15542" lon="-0.43268">
        <ele>34</ele>
        <time>2019-02-25T11:07:56+01:00</time>
      </trkpt>
      <trkpt lat="49.15546" lon="-0.4324">
        <ele>34</ele>
        <time>2019-02-25T11:08:06+01:00</time>
      </trkpt>
      <trkpt lat="49.15552" lon="-0.43208">
        <ele>33</ele>
        <time>2019-02-25T11:08:21+01:00</time>
      </trkpt>
      <trkpt lat="49.15558" lon="-0.43178">
        <ele>33</ele>
        <time>2019-02-25T11:08:34+01:00</time>
      </trkpt>
      <trkpt lat="49.15561" lon="-0.43147">
        <ele>33</ele>
        <time>2019-02-25T11:08:48+01:00</time>
      </trkpt>
      <trkpt lat="49.15565" lon="-0.4313">
        <ele>33</ele>
        <time>2019-02-25T11:08:58+01:00</time>
      </trkpt>
      <trkpt lat="49.15568" lon="-0.4311">
        <ele>34</ele>
        <time>2019-02-25T11:09:04+01:00</time>
      </trkpt>
      <trkpt lat="49.15576" lon="-0.4308">
        <ele>34</ele>
        <time>2019-02-25T11:09:20+01:00</time>
      </trkpt>
      <trkpt lat="49.15597" lon="-0.43084">
        <ele>33</ele>
        <time>2019-02-25T11:09:32+01:00</time>
      </trkpt>
      <trkpt lat="49.15618" lon="-0.4309">
        <ele>32</ele>
        <time>2019-02-25T11:09:48+01:00</time>
      </trkpt>
      <trkpt lat="49.15637" lon="-0.43096">
        <ele>31</ele>
        <time>2019-02-25T11:10:03+01:00</time>
      </trkpt>
      <trkpt lat="49.15656" lon="-0.43104">
        <ele>30</ele>
        <time>2019-02-25T11:10:17+01:00</time>
      </trkpt>
      <trkpt lat="49.15676" lon="-0.4311">
        <ele>28</ele>
        <time>2019-02-25T11:10:34+01:00</time>
      </trkpt>
      <trkpt lat="49.15689" lon="-0.43114">
        <ele>27</ele>
        <time>2019-02-25T11:10:42+01:00</time>
      </trkpt>
      <trkpt lat="49.1571" lon="-0.43123">
        <ele>25</ele>
        <time>2019-02-25T11:10:55+01:00</time>
      </trkpt>
      <trkpt lat="49.15722" lon="-0.43151">
        <ele>24</ele>
        <time>2021-04-30T16:28:15+02:00</time>
      </trkpt>
      <trkpt lat="49.15722" lon="-0.43161">
        <ele>24</ele>
        <time>2021-04-30T16:28:20+02:00</time>
      </trkpt>
      <trkpt lat="49.15736" lon="-0.43142">
        <ele>23</ele>
        <time>2019-02-25T11:11:23+01:00</time>
      </trkpt>
      <trkpt lat="49.15745" lon="-0.43129">
        <ele>21</ele>
        <time>2019-02-25T11:11:31+01:00</time>
      </trkpt>
      <trkpt lat="49.1576" lon="-0.43106">
        <ele>21</ele>
        <time>2019-02-25T11:11:45+01:00</time>
      </trkpt>
      <trkpt lat="49.15773" lon="-0.43084">
        <ele>20</ele>
        <time>2019-02-25T11:12:00+01:00</time>
      </trkpt>
      <trkpt lat="49.15783" lon="-0.43058">
        <ele>19</ele>
        <time>2019-02-25T11:12:13+01:00</time>
      </trkpt>
      <trkpt lat="49.15786" lon="-0.43032">
        <ele>19</ele>
        <time>2019-02-25T11:12:22+01:00</time>
      </trkpt>
      <trkpt lat="49.15783" lon="-0.43002">
        <ele>19</ele>
        <time>2019-02-25T11:12:37+01:00</time>
      </trkpt>
      <trkpt lat="49.15782" lon="-0.42971">
        <ele>19</ele>
        <time>2019-02-25T11:12:52+01:00</time>
      </trkpt>
      <trkpt lat="49.1578" lon="-0.42941">
        <ele>19</ele>
        <time>2019-02-25T11:13:05+01:00</time>
      </trkpt>
      <trkpt lat="49.15777" lon="-0.42909">
        <ele>19</ele>
        <time>2019-02-25T11:13:20+01:00</time>
      </trkpt>
      <trkpt lat="49.15776" lon="-0.42891">
        <ele>20</ele>
        <time>2019-02-25T11:13:33+01:00</time>
      </trkpt>
      <trkpt lat="49.15776" lon="-0.42859">
        <ele>20</ele>
        <time>2019-02-25T11:13:51+01:00</time>
      </trkpt>
      <trkpt lat="49.15778" lon="-0.4283">
        <ele>21</ele>
        <time>2019-02-25T11:14:04+01:00</time>
      </trkpt>
      <trkpt lat="49.15778" lon="-0.42807">
        <ele>20</ele>
        <time>2019-02-25T11:14:15+01:00</time>
      </trkpt>
      <trkpt lat="49.15784" lon="-0.42779">
        <ele>19</ele>
        <time>2019-02-25T11:14:22+01:00</time>
      </trkpt>
      <trkpt lat="49.15785" lon="-0.42748">
        <ele>19</ele>
        <time>2019-02-25T11:14:34+01:00</time>
      </trkpt>
      <trkpt lat="49.15785" lon="-0.4272">
        <ele>18</ele>
        <time>2019-02-25T11:14:50+01:00</time>
      </trkpt>
      <trkpt lat="49.15785" lon="-0.42688">
        <ele>17</ele>
        <time>2019-02-25T11:15:00+01:00</time>
      </trkpt>
      <trkpt lat="49.15807" lon="-0.42683">
        <ele>16</ele>
        <time>2019-02-25T11:17:42+01:00</time>
      </trkpt>
      <trkpt lat="49.15827" lon="-0.42687">
        <ele>15</ele>
        <time>2019-02-25T11:17:52+01:00</time>
      </trkpt>
      <trkpt lat="49.15846" lon="-0.42693">
        <ele>15</ele>
        <time>2019-02-25T11:18:04+01:00</time>
      </trkpt>
      <trkpt lat="49.15867" lon="-0.427">
        <ele>15</ele>
        <time>2019-02-25T11:18:17+01:00</time>
      </trkpt>
      <trkpt lat="49.15887" lon="-0.42705">
        <ele>15</ele>
        <time>2019-02-25T11:18:34+01:00</time>
      </trkpt>
      <trkpt lat="49.15906" lon="-0.42711">
        <ele>15</ele>
        <time>2019-02-25T11:18:54+01:00</time>
      </trkpt>
      <trkpt lat="49.15927" lon="-0.42709">
        <ele>16</ele>
        <time>2019-02-25T11:19:07+01:00</time>
      </trkpt>
      <trkpt lat="49.15947" lon="-0.42715">
        <ele>16</ele>
        <time>2019-02-25T11:19:21+01:00</time>
      </trkpt>
      <trkpt lat="49.15965" lon="-0.42725">
        <ele>16</ele>
        <time>2019-02-25T11:19:30+01:00</time>
      </trkpt>
      <trkpt lat="49.15986" lon="-0.42732">
        <ele>17</ele>
        <time>2019-02-25T11:19:42+01:00</time>
      </trkpt>
      <trkpt lat="49.16" lon="-0.42708">
        <ele>16</ele>
        <time>2019-02-25T11:19:57+01:00</time>
      </trkpt>
      <trkpt lat="49.16006" lon="-0.42683">
        <ele>16</ele>
        <time>2019-02-25T11:20:03+01:00</time>
      </trkpt>
      <trkpt lat="49.16005" lon="-0.42657">
        <ele>16</ele>
        <time>2019-02-25T11:20:19+01:00</time>
      </trkpt>
      <trkpt lat="49.1599" lon="-0.42645">
        <ele>16</ele>
        <time>2019-02-25T11:20:31+01:00</time>
      </trkpt>
      <trkpt lat="49.15969" lon="-0.42635">
        <ele>15</ele>
        <time>2019-02-25T11:20:48+01:00</time>
      </trkpt>
      <trkpt lat="49.15952" lon="-0.42626">
        <ele>15</ele>
        <time>2019-02-25T11:21:00+01:00</time>
      </trkpt>
      <trkpt lat="49.15933" lon="-0.42609">
        <ele>15</ele>
        <time>2019-02-25T11:21:15+01:00</time>
      </trkpt>
      <trkpt lat="49.15915" lon="-0.42594">
        <ele>14</ele>
        <time>2019-02-25T11:21:36+01:00</time>
      </trkpt>
      <trkpt lat="49.15899" lon="-0.42575">
        <ele>14</ele>
        <time>2019-02-25T11:21:50+01:00</time>
      </trkpt>
      <trkpt lat="49.15881" lon="-0.42561">
        <ele>14</ele>
        <time>2019-02-25T11:22:03+01:00</time>
      </trkpt>
      <trkpt lat="49.15861" lon="-0.42545">
        <ele>14</ele>
        <time>2019-02-25T11:22:27+01:00</time>
      </trkpt>
      <trkpt lat="49.15846" lon="-0.42529">
        <ele>15</ele>
        <time>2019-02-25T11:22:35+01:00</time>
      </trkpt>
      <trkpt lat="49.15835" lon="-0.4252">
        <ele>15</ele>
        <time>2019-02-25T11:22:39+01:00</time>
      </trkpt>
      <trkpt lat="49.15817" lon="-0.42504">
        <ele>16</ele>
        <time>2019-02-25T11:22:59+01:00</time>
      </trkpt>
      <trkpt lat="49.15802" lon="-0.42489">
        <ele>18</ele>
        <time>2019-02-25T11:23:18+01:00</time>
      </trkpt>
      <trkpt lat="49.15786" lon="-0.42472">
        <ele>20</ele>
        <time>2019-02-25T11:23:28+01:00</time>
      </trkpt>
      <trkpt lat="49.15769" lon="-0.42457">
        <ele>22</ele>
        <time>2019-02-25T11:23:39+01:00</time>
      </trkpt>
      <trkpt lat="49.15755" lon="-0.42438">
        <ele>23</ele>
        <time>2019-02-25T11:24:04+01:00</time>
      </trkpt>
      <trkpt lat="49.15744" lon="-0.42424">
        <ele>24</ele>
        <time>2019-02-25T11:24:13+01:00</time>
      </trkpt>
      <trkpt lat="49.15729" lon="-0.42405">
        <ele>25</ele>
        <time>2019-02-25T11:24:34+01:00</time>
      </trkpt>
      <trkpt lat="49.15723" lon="-0.42375">
        <ele>26</ele>
        <time>2019-02-25T11:26:21+01:00</time>
      </trkpt>
      <trkpt lat="49.15735" lon="-0.42354">
        <ele>26</ele>
        <time>2019-02-25T11:26:33+01:00</time>
      </trkpt>
      <trkpt lat="49.15752" lon="-0.42337">
        <ele>26</ele>
        <time>2019-02-25T11:26:46+01:00</time>
      </trkpt>
      <trkpt lat="49.15767" lon="-0.42321">
        <ele>25</ele>
        <time>2019-02-25T11:27:00+01:00</time>
      </trkpt>
      <trkpt lat="49.15785" lon="-0.42305">
        <ele>23</ele>
        <time>2019-02-25T11:27:13+01:00</time>
      </trkpt>
      <trkpt lat="49.15794" lon="-0.42296">
        <ele>23</ele>
        <time>2019-02-25T11:27:21+01:00</time>
      </trkpt>
      <trkpt lat="49.15805" lon="-0.42286">
        <ele>22</ele>
        <time>2019-02-25T11:27:32+01:00</time>
      </trkpt>
      <trkpt lat="49.15823" lon="-0.42269">
        <ele>20</ele>
        <time>2019-02-25T11:27:41+01:00</time>
      </trkpt>
      <trkpt lat="49.15841" lon="-0.42251">
        <ele>19</ele>
        <time>2019-02-25T11:27:55+01:00</time>
      </trkpt>
      <trkpt lat="49.15857" lon="-0.42237">
        <ele>18</ele>
        <time>2019-02-25T11:28:09+01:00</time>
      </trkpt>
      <trkpt lat="49.15873" lon="-0.42221">
        <ele>18</ele>
        <time>2019-02-25T11:28:20+01:00</time>
      </trkpt>
      <trkpt lat="49.15889" lon="-0.42205">
        <ele>17</ele>
        <time>2019-02-25T11:28:31+01:00</time>
      </trkpt>
      <trkpt lat="49.159" lon="-0.42196">
        <ele>16</ele>
        <time>2019-02-25T11:28:38+01:00</time>
      </trkpt>
      <trkpt lat="49.15917" lon="-0.42177">
        <ele>15</ele>
        <time>2019-02-25T11:28:53+01:00</time>
      </trkpt>
      <trkpt lat="49.15932" lon="-0.42183">
        <ele>15</ele>
        <time>2019-02-25T11:29:09+01:00</time>
      </trkpt>
      <trkpt lat="49.15951" lon="-0.42191">
        <ele>14</ele>
        <time>2019-02-25T11:29:24+01:00</time>
      </trkpt>
      <trkpt lat="49.15968" lon="-0.42199">
        <ele>14</ele>
        <time>2019-02-25T11:29:41+01:00</time>
      </trkpt>
      <trkpt lat="49.15986" lon="-0.42205">
        <ele>14</ele>
        <time>2019-02-25T11:29:55+01:00</time>
      </trkpt>
      <trkpt lat="49.16005" lon="-0.42213">
        <ele>13</ele>
        <time>2019-02-25T11:30:08+01:00</time>
      </trkpt>
      <trkpt lat="49.16023" lon="-0.4222">
        <ele>13</ele>
        <time>2019-02-25T11:30:23+01:00</time>
      </trkpt>
      <trkpt lat="49.16032" lon="-0.4222">
        <ele>13</ele>
        <time>2019-02-25T11:30:34+01:00</time>
      </trkpt>
      <trkpt lat="49.1605" lon="-0.42215">
        <ele>13</ele>
        <time>2019-02-25T11:30:46+01:00</time>
      </trkpt>
      <trkpt lat="49.1607" lon="-0.42204">
        <ele>13</ele>
        <time>2019-02-25T11:30:58+01:00</time>
      </trkpt>
      <trkpt lat="49.16085" lon="-0.42195">
        <ele>12</ele>
        <time>2019-02-25T11:31:10+01:00</time>
      </trkpt>
      <trkpt lat="49.16102" lon="-0.42185">
        <ele>12</ele>
        <time>2019-02-25T11:31:23+01:00</time>
      </trkpt>
      <trkpt lat="49.16116" lon="-0.42166">
        <ele>12</ele>
        <time>2019-02-25T11:31:34+01:00</time>
      </trkpt>
      <trkpt lat="49.16125" lon="-0.4214">
        <ele>11</ele>
        <time>2019-02-25T11:31:49+01:00</time>
      </trkpt>
      <trkpt lat="49.16135" lon="-0.42114">
        <ele>11</ele>
        <time>2019-02-25T11:32:04+01:00</time>
      </trkpt>
      <trkpt lat="49.16147" lon="-0.42091">
        <ele>11</ele>
        <time>2019-02-25T11:32:16+01:00</time>
      </trkpt>
      <trkpt lat="49.1616" lon="-0.42065">
        <ele>11</ele>
        <time>2019-02-25T11:32:25+01:00</time>
      </trkpt>
      <trkpt lat="49.16172" lon="-0.42043">
        <ele>11</ele>
        <time>2019-02-25T11:32:36+01:00</time>
      </trkpt>
      <trkpt lat="49.16187" lon="-0.42016">
        <ele>12</ele>
        <time>2019-02-25T11:32:56+01:00</time>
      </trkpt>
      <trkpt lat="49.16198" lon="-0.42001">
        <ele>13</ele>
        <time>2019-02-25T11:33:08+01:00</time>
      </trkpt>
      <trkpt lat="49.16219" lon="-0.4199">
        <ele>15</ele>
        <time>2019-02-25T11:33:18+01:00</time>
      </trkpt>
      <trkpt lat="49.1624" lon="-0.41977">
        <ele>16</ele>
        <time>2019-02-25T11:33:34+01:00</time>
      </trkpt>
      <trkpt lat="49.16256" lon="-0.41961">
        <ele>16</ele>
        <time>2019-02-25T11:33:48+01:00</time>
      </trkpt>
      <trkpt lat="49.16262" lon="-0.41938">
        <ele>16</ele>
        <time>2019-02-25T11:34:07+01:00</time>
      </trkpt>
      <trkpt lat="49.1626" lon="-0.41906">
        <ele>15</ele>
        <time>2019-02-25T11:34:22+01:00</time>
      </trkpt>
      <trkpt lat="49.16259" lon="-0.41876">
        <ele>15</ele>
        <time>2019-02-25T11:34:33+01:00</time>
      </trkpt>
      <trkpt lat="49.16262" lon="-0.41859">
        <ele>14</ele>
        <time>2019-02-25T11:34:38+01:00</time>
      </trkpt>
      <trkpt lat="49.16276" lon="-0.41832">
        <ele>14</ele>
        <time>2019-02-25T11:34:48+01:00</time>
      </trkpt>
      <trkpt lat="49.16288" lon="-0.41812">
        <ele>14</ele>
        <time>2019-02-25T11:35:01+01:00</time>
      </trkpt>
      <trkpt lat="49.16301" lon="-0.41788">
        <ele>13</ele>
        <time>2021-04-30T16:35:55+02:00</time>
      </trkpt>
      <trkpt lat="49.16315" lon="-0.41794">
        <ele>13</ele>
        <time>2019-02-25T11:35:26+01:00</time>
      </trkpt>
      <trkpt lat="49.16336" lon="-0.41793">
        <ele>14</ele>
        <time>2021-04-30T16:36:05+02:00</time>
      </trkpt>
      <trkpt lat="49.16338" lon="-0.41778">
        <ele>13</ele>
        <time>2021-04-30T16:36:10+02:00</time>
      </trkpt>
      <trkpt lat="49.16342" lon="-0.41759">
        <ele>13</ele>
        <time>2019-02-25T11:35:41+01:00</time>
      </trkpt>
      <trkpt lat="49.16344" lon="-0.41742">
        <ele>12</ele>
        <time>2019-02-25T11:35:50+01:00</time>
      </trkpt>
      <trkpt lat="49.16349" lon="-0.41712">
        <ele>11</ele>
        <time>2019-02-25T11:36:17+01:00</time>
      </trkpt>
      <trkpt lat="49.16358" lon="-0.41713">
        <ele>12</ele>
        <time>2019-02-25T11:36:21+01:00</time>
      </trkpt>
    </trkseg>
  </trk>
</gpx>